Time;durP1;ratioP1;P1;durP2;ratioP2;P2;SDS_P1;SDS_P2;PMS_P1;PMS_P2;Temp;Humidity;BMP_temperature;BMP_pressure;BME280_temperature;BME280_humidity;BME280_pressure;Samples;Min_cycle;Max_cycle;Signal;HPM_P1;HPM_P2
2022/01/06 00:00:13;;;;;;;10.30;3.60;;;;;;;;;;5094231;28;20491;-67
2022/01/06 00:02:39;;;;;;;7.38;4.00;;;;;;;;;;5094367;28;20483;-66
2022/01/06 00:05:06;;;;;;;10.02;4.47;;;;;;;;;;5093998;28;20232;-66
2022/01/06 00:07:32;;;;;;;16.17;4.00;;;;;;;;;;5092952;28;20174;-66
2022/01/06 00:09:58;;;;;;;7.00;3.70;;;;;;;;;;5073661;28;20171;-66
2022/01/06 00:12:34;;;;;;;8.15;4.70;;;;;;;;;;5073553;28;20152;-65
2022/01/06 00:15:26;;;;;;;9.43;3.67;;;;;;;;;;5073559;28;20221;-66
2022/01/06 00:25:37;;;;;;;11.25;4.35;;;;;;;;;;5073251;28;20195;-65
2022/01/06 00:28:03;;;;;;;5.32;3.33;;;;;;;;;;5072228;28;20205;-66
2022/01/06 00:30:29;;;;;;;8.48;3.92;;;;;;;;;;5072708;28;20221;-65
2022/01/06 00:32:55;;;;;;;16.47;4.00;;;;;;;;;;5073067;28;20176;-66
2022/01/06 00:35:21;;;;;;;11.88;4.25;;;;;;;;;;5075630;28;20449;-65
2022/01/06 00:37:47;;;;;;;16.07;4.97;;;;;;;;;;5093504;28;20182;-65
2022/01/06 00:40:13;;;;;;;6.83;4.20;;;;;;;;;;5093667;28;20461;-66
2022/01/06 00:42:39;;;;;;;11.13;4.07;;;;;;;;;;5093524;28;20851;-65
2022/01/06 00:45:05;;;;;;;9.27;3.60;;;;;;;;;;5092243;28;20687;-66
2022/01/06 00:47:31;;;;;;;5.35;3.45;;;;;;;;;;5093511;28;20202;-65
2022/01/06 00:49:57;;;;;;;13.02;3.63;;;;;;;;;;5093427;28;20186;-65
2022/01/06 00:52:23;;;;;;;9.70;3.87;;;;;;;;;;5093262;28;20162;-68
2022/01/06 00:54:49;;;;;;;8.40;3.50;;;;;;;;;;5092538;28;20760;-65
2022/01/06 00:57:15;;;;;;;10.97;3.70;;;;;;;;;;5092114;28;20395;-65
2022/01/06 00:59:41;;;;;;;5.23;3.70;;;;;;;;;;5091688;28;20542;-65
2022/01/06 01:02:07;;;;;;;4.40;3.10;;;;;;;;;;5093316;28;20401;-65
2022/01/06 01:04:33;;;;;;;7.43;3.10;;;;;;;;;;5092972;28;20457;-67
2022/01/06 01:06:59;;;;;;;10.43;4.40;;;;;;;;;;5093362;28;20401;-65
2022/01/06 01:09:25;;;;;;;9.63;4.22;;;;;;;;;;5093291;28;20412;-66
2022/01/06 01:11:53;;;;;;;6.32;3.05;;;;;;;;;;5093533;28;20170;-66
2022/01/06 01:14:27;;;;;;;8.95;3.20;;;;;;;;;;5093171;28;20159;-66
2022/01/06 01:16:57;;;;;;;11.02;3.75;;;;;;;;;;5093073;28;20225;-66
2022/01/06 01:19:23;;;;;;;13.50;3.95;;;;;;;;;;5092552;28;20206;-67
2022/01/06 01:21:49;;;;;;;7.55;3.70;;;;;;;;;;5093255;28;20179;-67
2022/01/06 01:24:16;;;;;;;6.68;3.65;;;;;;;;;;5093020;28;20619;-67
2022/01/06 01:26:42;;;;;;;9.48;3.70;;;;;;;;;;5092883;28;20164;-68
2022/01/06 01:29:13;;;;;;;5.97;3.20;;;;;;;;;;5093135;28;20538;-67
2022/01/06 01:31:44;;;;;;;12.77;3.75;;;;;;;;;;5091572;28;20416;-68
2022/01/06 01:34:12;;;;;;;7.80;3.05;;;;;;;;;;5092894;28;20273;-66
2022/01/06 01:36:38;;;;;;;7.78;3.35;;;;;;;;;;5093143;28;20169;-69
2022/01/06 01:39:04;;;;;;;8.43;3.92;;;;;;;;;;5092840;28;20591;-68
2022/01/06 01:41:30;;;;;;;18.08;3.47;;;;;;;;;;5092967;28;20186;-67
2022/01/06 01:43:57;;;;;;;9.80;3.90;;;;;;;;;;5092853;28;20534;-70
2022/01/06 01:46:30;;;;;;;8.27;4.13;;;;;;;;;;5091851;28;20517;-67
2022/01/06 01:51:52;;;;;;;9.60;3.22;;;;;;;;;;5055386;28;20651;-68
2022/01/06 01:54:19;;;;;;;4.47;3.30;;;;;;;;;;5092904;28;20167;-68
2022/01/06 01:56:45;;;;;;;6.68;4.35;;;;;;;;;;5092719;28;20254;-67
2022/01/06 01:59:11;;;;;;;9.52;4.25;;;;;;;;;;5093012;28;20237;-67
2022/01/06 02:01:37;;;;;;;6.28;3.50;;;;;;;;;;5092822;28;20186;-68
2022/01/06 02:04:03;;;;;;;16.77;3.63;;;;;;;;;;5092570;28;20622;-67
2022/01/06 02:06:29;;;;;;;6.70;3.92;;;;;;;;;;5095366;28;20420;-67
2022/01/06 02:08:55;;;;;;;14.05;3.95;;;;;;;;;;5096380;28;20166;-67
2022/01/06 02:11:22;;;;;;;19.77;3.88;;;;;;;;;;5096300;28;20174;-67
2022/01/06 02:13:52;;;;;;;7.88;3.35;;;;;;;;;;5096285;28;20178;-67
2022/01/06 02:16:20;;;;;;;13.10;3.53;;;;;;;;;;5096125;28;20231;-67
2022/01/06 02:18:46;;;;;;;8.25;3.25;;;;;;;;;;5096039;28;20657;-67
2022/01/06 02:21:12;;;;;;;10.70;3.42;;;;;;;;;;5096018;28;20182;-68
2022/01/06 02:23:38;;;;;;;10.23;3.40;;;;;;;;;;5095845;28;20246;-66
2022/01/06 02:26:04;;;;;;;9.83;3.53;;;;;;;;;;5096071;28;20397;-68
2022/01/06 02:28:30;;;;;;;12.87;3.10;;;;;;;;;;5095315;28;20404;-67
2022/01/06 02:30:57;;;;;;;8.20;4.23;;;;;;;;;;5095672;28;20384;-68
2022/01/06 02:33:24;;;;;;;8.32;3.60;;;;;;;;;;5095817;28;20435;-67
2022/01/06 02:35:54;;;;;;;9.40;4.15;;;;;;;;;;5095616;28;20590;-67
2022/01/06 02:38:20;;;;;;;10.45;4.05;;;;;;;;;;5096222;28;20175;-67
2022/01/06 02:40:46;;;;;;;11.80;3.70;;;;;;;;;;5095867;28;20608;-72
2022/01/06 02:43:15;;;;;;;6.43;3.63;;;;;;;;;;5094342;28;20201;-71
2022/01/06 02:45:41;;;;;;;4.32;3.13;;;;;;;;;;5095645;28;20191;-71
2022/01/06 02:48:10;;;;;;;3.70;3.00;;;;;;;;;;5095757;28;20194;-72
2022/01/06 02:50:40;;;;;;;10.15;3.47;;;;;;;;;;5095479;28;20509;-72
2022/01/06 02:53:07;;;;;;;8.25;3.65;;;;;;;;;;5095386;28;20163;-72
2022/01/06 02:55:33;;;;;;;8.85;3.42;;;;;;;;;;5094259;28;20550;-72
2022/01/06 02:57:59;;;;;;;9.75;3.10;;;;;;;;;;5095253;28;20167;-73
2022/01/06 03:00:26;;;;;;;4.47;3.13;;;;;;;;;;5095429;28;20206;-73
2022/01/06 03:02:52;;;;;;;11.02;3.65;;;;;;;;;;5095317;28;20194;-72
2022/01/06 03:05:18;;;;;;;3.60;3.27;;;;;;;;;;5095147;28;20202;-73
2022/01/06 03:07:45;;;;;;;8.57;4.05;;;;;;;;;;5095180;28;20826;-71
2022/01/06 03:10:13;;;;;;;11.93;3.25;;;;;;;;;;5095232;28;20171;-70
2022/01/06 03:12:39;;;;;;;13.73;3.15;;;;;;;;;;5095190;28;20193;-72
2022/01/06 03:15:13;;;;;;;10.73;2.50;;;;;;;;;;5094989;28;20622;-71
2022/01/06 03:17:40;;;;;;;7.18;2.40;;;;;;;;;;5094315;28;20410;-72
2022/01/06 03:20:08;;;;;;;14.48;3.92;;;;;;;;;;5094839;28;20214;-72
2022/01/06 03:22:34;;;;;;;5.35;2.95;;;;;;;;;;5094867;28;20174;-71
2022/01/06 03:25:00;;;;;;;3.45;2.45;;;;;;;;;;5094842;28;20171;-71
2022/01/06 03:27:26;;;;;;;13.50;3.40;;;;;;;;;;5094942;28;20654;-72
2022/01/06 03:29:52;;;;;;;9.90;3.30;;;;;;;;;;5094762;28;20171;-67
2022/01/06 03:32:19;;;;;;;3.35;2.72;;;;;;;;;;5094657;28;20885;-71
2022/01/06 03:34:45;;;;;;;2.72;2.45;;;;;;;;;;5094444;28;20260;-71
2022/01/06 03:37:12;;;;;;;11.95;3.10;;;;;;;;;;5094517;28;20684;-72
2022/01/06 03:39:39;;;;;;;4.20;2.67;;;;;;;;;;5094704;28;20614;-67
2022/01/06 03:42:05;;;;;;;4.78;2.30;;;;;;;;;;5094448;28;20159;-72
2022/01/06 03:44:31;;;;;;;4.20;2.80;;;;;;;;;;5094410;28;20175;-68
2022/01/06 03:46:57;;;;;;;12.67;3.70;;;;;;;;;;5094614;28;20211;-67
2022/01/06 03:49:23;;;;;;;2.23;2.10;;;;;;;;;;5094064;28;20428;-67
2022/01/06 03:51:49;;;;;;;3.95;2.67;;;;;;;;;;5094313;28;20372;-67
2022/01/06 03:54:15;;;;;;;8.23;3.15;;;;;;;;;;5094395;28;20178;-67
2022/01/06 03:56:41;;;;;;;5.40;2.80;;;;;;;;;;5094291;28;20179;-67
2022/01/06 03:59:07;;;;;;;2.97;2.33;;;;;;;;;;5092931;28;20202;-67
2022/01/06 04:01:33;;;;;;;5.97;3.13;;;;;;;;;;5094221;28;20427;-67
2022/01/06 04:03:59;;;;;;;7.13;2.78;;;;;;;;;;5093858;28;20401;-67
2022/01/06 04:06:26;;;;;;;5.20;2.72;;;;;;;;;;5092573;28;20175;-67
2022/01/06 04:08:52;;;;;;;7.70;2.90;;;;;;;;;;5093904;28;20171;-67
2022/01/06 04:11:18;;;;;;;6.18;3.00;;;;;;;;;;5094022;28;20165;-67
2022/01/06 04:13:44;;;;;;;10.10;2.90;;;;;;;;;;5093982;28;20599;-67
2022/01/06 04:16:11;;;;;;;5.60;2.72;;;;;;;;;;5093691;28;20431;-67
2022/01/06 04:18:37;;;;;;;3.95;3.05;;;;;;;;;;5092464;28;20266;-68
2022/01/06 04:21:03;;;;;;;6.65;3.72;;;;;;;;;;5093731;28;20214;-67
2022/01/06 04:23:29;;;;;;;10.48;2.60;;;;;;;;;;5093730;28;20618;-67
2022/01/06 04:25:55;;;;;;;7.72;2.92;;;;;;;;;;5093520;28;20171;-67
2022/01/06 04:28:21;;;;;;;7.70;3.07;;;;;;;;;;5093733;28;20278;-68
2022/01/06 04:30:47;;;;;;;6.03;3.37;;;;;;;;;;5093899;28;20412;-67
2022/01/06 04:33:13;;;;;;;8.97;2.97;;;;;;;;;;5093445;28;20394;-67
2022/01/06 04:35:39;;;;;;;4.87;2.87;;;;;;;;;;5093527;28;20431;-67
2022/01/06 04:38:05;;;;;;;5.57;2.60;;;;;;;;;;5093528;28;20412;-69
2022/01/06 04:40:31;;;;;;;3.93;3.50;;;;;;;;;;5093436;28;20552;-68
2022/01/06 04:42:57;;;;;;;5.72;2.53;;;;;;;;;;5092085;28;20423;-67
2022/01/06 04:45:23;;;;;;;4.93;3.27;;;;;;;;;;5093264;28;20171;-67
2022/01/06 04:47:49;;;;;;;12.60;3.30;;;;;;;;;;5093369;28;20405;-69
2022/01/06 04:50:15;;;;;;;3.80;3.10;;;;;;;;;;5093291;28;20417;-68
2022/01/06 04:52:41;;;;;;;7.28;3.10;;;;;;;;;;5093254;28;20402;-67
2022/01/06 04:55:07;;;;;;;5.50;3.60;;;;;;;;;;5093251;28;20228;-67
2022/01/06 04:57:33;;;;;;;6.07;2.97;;;;;;;;;;5093403;28;20892;-67
2022/01/06 04:59:59;;;;;;;5.95;3.08;;;;;;;;;;5091928;28;20301;-66
2022/01/06 05:02:25;;;;;;;6.60;2.60;;;;;;;;;;5093320;28;20194;-68
2022/01/06 05:04:51;;;;;;;4.18;2.72;;;;;;;;;;5093206;28;20417;-68
2022/01/06 05:07:17;;;;;;;4.10;2.87;;;;;;;;;;5093257;28;20512;-69
2022/01/06 05:09:43;;;;;;;6.43;3.20;;;;;;;;;;5093348;28;20388;-68
2022/01/06 05:12:10;;;;;;;3.72;2.72;;;;;;;;;;5093189;28;20394;-72
2022/01/06 05:14:35;;;;;;;7.20;3.08;;;;;;;;;;5093101;28;20171;-72
2022/01/06 05:17:02;;;;;;;4.00;2.80;;;;;;;;;;5092969;28;20321;-68
2022/01/06 05:19:28;;;;;;;3.22;2.42;;;;;;;;;;5093306;28;20525;-69
2022/01/06 05:21:54;;;;;;;3.17;2.88;;;;;;;;;;5092974;28;20167;-71
2022/01/06 05:24:22;;;;;;;6.15;2.90;;;;;;;;;;5091968;28;20254;-69
2022/01/06 05:26:48;;;;;;;10.48;3.10;;;;;;;;;;5091700;28;20194;-71
2022/01/06 05:29:14;;;;;;;10.60;3.22;;;;;;;;;;5093035;28;20626;-71
2022/01/06 05:31:41;;;;;;;3.70;2.83;;;;;;;;;;5093070;28;20234;-69
2022/01/06 05:34:07;;;;;;;2.85;2.65;;;;;;;;;;5092897;28;20181;-72
2022/01/06 05:36:33;;;;;;;8.85;2.60;;;;;;;;;;5093022;28;20171;-70
2022/01/06 05:39:00;;;;;;;8.18;3.10;;;;;;;;;;5092990;28;20201;-70
2022/01/06 05:41:26;;;;;;;5.25;2.95;;;;;;;;;;5095320;28;20183;-71
2022/01/06 05:43:52;;;;;;;3.70;3.00;;;;;;;;;;5096677;28;20173;-71
2022/01/06 05:46:18;;;;;;;9.05;3.38;;;;;;;;;;5096898;28;20254;-72
2022/01/06 05:48:45;;;;;;;5.25;3.22;;;;;;;;;;5096668;28;20648;-68
2022/01/06 05:51:11;;;;;;;9.18;3.15;;;;;;;;;;5096793;28;20174;-72
2022/01/06 05:53:37;;;;;;;8.70;3.60;;;;;;;;;;5095448;28;20171;-72
2022/01/06 05:56:03;;;;;;;6.38;2.72;;;;;;;;;;5096744;28;20194;-69
2022/01/06 05:58:29;;;;;;;3.90;2.60;;;;;;;;;;5096577;28;20171;-71
2022/01/06 06:00:56;;;;;;;4.72;2.92;;;;;;;;;;5096342;28;20285;-70
2022/01/06 06:03:22;;;;;;;4.90;3.10;;;;;;;;;;5095083;28;20225;-69
2022/01/06 06:05:48;;;;;;;5.20;4.90;;;;;;;;;;5096452;28;20171;-69
2022/01/06 06:08:14;;;;;;;9.57;4.72;;;;;;;;;;5096249;28;20170;-69
2022/01/06 06:10:40;;;;;;;3.55;2.45;;;;;;;;;;5096437;28;20575;-68
2022/01/06 06:13:06;;;;;;;3.03;2.67;;;;;;;;;;5096154;28;20251;-67
2022/01/06 06:15:35;;;;;;;6.05;2.92;;;;;;;;;;5095946;28;20448;-67
2022/01/06 06:18:02;;;;;;;4.00;2.90;;;;;;;;;;5095963;28;20167;-67
2022/01/06 06:20:28;;;;;;;11.27;3.90;;;;;;;;;;5096159;28;20211;-67
2022/01/06 06:22:54;;;;;;;11.70;3.30;;;;;;;;;;5095840;28;20174;-66
2022/01/06 06:25:20;;;;;;;5.23;2.93;;;;;;;;;;5096053;28;20167;-67
2022/01/06 06:27:46;;;;;;;4.33;3.00;;;;;;;;;;5096036;28;20397;-67
2022/01/06 06:30:12;;;;;;;6.30;3.37;;;;;;;;;;5094626;28;20855;-67
2022/01/06 06:32:38;;;;;;;22.45;15.45;;;;;;;;;;5096094;28;20393;-67
2022/01/06 06:35:05;;;;;;;49.83;25.77;;;;;;;;;;5095847;28;20175;-67
2022/01/06 06:37:31;;;;;;;12.90;7.07;;;;;;;;;;5096486;28;20595;-67
2022/01/06 06:39:57;;;;;;;10.50;3.80;;;;;;;;;;5095822;28;20237;-67
2022/01/06 06:42:24;;;;;;;7.80;3.85;;;;;;;;;;5095870;28;20398;-67
2022/01/06 06:44:50;;;;;;;4.25;3.17;;;;;;;;;;5094500;28;20171;-67
2022/01/06 06:47:16;;;;;;;6.15;3.78;;;;;;;;;;5095815;28;20228;-67
2022/01/06 06:49:42;;;;;;;5.85;4.05;;;;;;;;;;5095684;28;20179;-67
2022/01/06 06:52:08;;;;;;;5.83;4.33;;;;;;;;;;5094341;28;20626;-67
2022/01/06 06:54:34;;;;;;;9.00;5.17;;;;;;;;;;5094304;28;20407;-66
2022/01/06 06:57:00;;;;;;;14.15;12.73;;;;;;;;;;5095429;28;20888;-67
2022/01/06 06:59:26;;;;;;;3.95;3.70;;;;;;;;;;5095225;28;20276;-67
2022/01/06 07:01:52;;;;;;;11.60;5.53;;;;;;;;;;5095393;28;20563;-67
2022/01/06 07:04:18;;;;;;;19.23;8.18;;;;;;;;;;5095165;28;20427;-67
2022/01/06 07:06:44;;;;;;;10.63;5.80;;;;;;;;;;5095218;28;20184;-67
2022/01/06 07:09:10;;;;;;;7.10;4.22;;;;;;;;;;5095249;28;20400;-67
2022/01/06 07:11:36;;;;;;;4.30;3.13;;;;;;;;;;5095393;28;20171;-67
2022/01/06 07:14:02;;;;;;;6.05;4.20;;;;;;;;;;5094836;28;20202;-67
2022/01/06 07:16:28;;;;;;;9.05;5.22;;;;;;;;;;5094947;28;20226;-68
2022/01/06 07:18:55;;;;;;;11.18;6.13;;;;;;;;;;5093621;28;20190;-67
2022/01/06 07:21:21;;;;;;;19.38;9.40;;;;;;;;;;5095079;28;20634;-67
2022/01/06 07:23:47;;;;;;;23.17;10.05;;;;;;;;;;5094918;28;20163;-67
2022/01/06 07:26:13;;;;;;;22.80;10.07;;;;;;;;;;5094919;28;20175;-68
2022/01/06 07:28:39;;;;;;;22.13;10.07;;;;;;;;;;5094727;28;20186;-70
2022/01/06 07:31:05;;;;;;;20.10;10.10;;;;;;;;;;5094879;28;20408;-69
2022/01/06 07:33:31;;;;;;;14.63;6.40;;;;;;;;;;5094538;28;20208;-70
2022/01/06 07:35:57;;;;;;;8.07;5.20;;;;;;;;;;5094863;28;20248;-72
2022/01/06 07:38:24;;;;;;;14.07;5.37;;;;;;;;;;5094721;28;20206;-68
2022/01/06 07:40:50;;;;;;;8.35;7.50;;;;;;;;;;5094451;28;21042;-67
2022/01/06 07:43:16;;;;;;;6.78;3.75;;;;;;;;;;5094825;28;20538;-68
2022/01/06 07:45:42;;;;;;;4.28;3.03;;;;;;;;;;5094336;28;20177;-68
2022/01/06 07:48:16;;;;;;;6.15;3.40;;;;;;;;;;5094283;28;20599;-67
2022/01/06 07:50:43;;;;;;;14.05;4.82;;;;;;;;;;5094584;28;20161;-68
2022/01/06 07:53:09;;;;;;;6.05;5.55;;;;;;;;;;5094296;28;20201;-68
2022/01/06 07:55:35;;;;;;;9.60;5.68;;;;;;;;;;5094149;28;20167;-68
2022/01/06 07:58:01;;;;;;;8.17;4.93;;;;;;;;;;5094316;28;20188;-68
2022/01/06 08:00:28;;;;;;;10.70;5.28;;;;;;;;;;5094131;28;20835;-68
2022/01/06 08:02:53;;;;;;;5.50;4.15;;;;;;;;;;5093637;28;20257;-69
2022/01/06 08:05:23;;;;;;;12.90;5.23;;;;;;;;;;5094065;28;20188;-69
2022/01/06 08:07:49;;;;;;;7.82;4.30;;;;;;;;;;5093994;28;20496;-68
2022/01/06 08:10:15;;;;;;;8.20;4.57;;;;;;;;;;5093982;28;20205;-67
2022/01/06 08:12:41;;;;;;;5.25;4.63;;;;;;;;;;5094114;28;20411;-68
2022/01/06 08:15:07;;;;;;;5.70;5.07;;;;;;;;;;5092740;28;20524;-68
2022/01/06 08:17:34;;;;;;;7.05;5.15;;;;;;;;;;5093358;28;20186;-71
2022/01/06 08:20:00;;;;;;;12.68;5.43;;;;;;;;;;5093721;28;20213;-73
2022/01/06 08:22:26;;;;;;;7.87;6.07;;;;;;;;;;5093819;28;20167;-68
2022/01/06 08:24:52;;;;;;;9.75;6.10;;;;;;;;;;5092223;28;20487;-68
2022/01/06 08:27:18;;;;;;;12.48;4.90;;;;;;;;;;5093822;28;20159;-69
2022/01/06 08:29:44;;;;;;;12.32;6.82;;;;;;;;;;5093732;28;20163;-69
2022/01/06 08:32:10;;;;;;;11.70;7.53;;;;;;;;;;5093635;28;20171;-70
2022/01/06 08:34:37;;;;;;;10.07;6.10;;;;;;;;;;5093703;28;20416;-73
2022/01/06 08:37:03;;;;;;;16.92;6.72;;;;;;;;;;5093489;28;20901;-70
2022/01/06 08:39:29;;;;;;;6.38;5.78;;;;;;;;;;5093257;28;20260;-67
2022/01/06 08:41:55;;;;;;;15.13;8.00;;;;;;;;;;5093285;28;20590;-71
2022/01/06 08:44:21;;;;;;;11.77;7.32;;;;;;;;;;5093641;28;20455;-70
2022/01/06 08:46:48;;;;;;;6.55;5.70;;;;;;;;;;5093680;28;20174;-69
2022/01/06 08:49:18;;;;;;;10.63;5.32;;;;;;;;;;5093523;28;20176;-73
2022/01/06 08:51:43;;;;;;;7.70;5.10;;;;;;;;;;5093835;28;20174;-74
2022/01/06 08:54:11;;;;;;;15.37;4.00;;;;;;;;;;5093539;28;20167;-78
2022/01/06 08:56:37;;;;;;;9.15;4.57;;;;;;;;;;5093433;28;20880;-74
2022/01/06 08:59:04;;;;;;;4.70;3.90;;;;;;;;;;5093403;28;20194;-75
2022/01/06 09:01:30;;;;;;;5.43;4.93;;;;;;;;;;5093691;28;20556;-73
2022/01/06 09:03:56;;;;;;;5.80;4.60;;;;;;;;;;5093391;28;20689;-70
2022/01/06 09:06:22;;;;;;;12.88;5.15;;;;;;;;;;5093377;28;20413;-69
2022/01/06 09:08:48;;;;;;;11.93;5.17;;;;;;;;;;5093419;28;20174;-68
2022/01/06 09:11:15;;;;;;;10.02;5.05;;;;;;;;;;5093371;28;20456;-67
2022/01/06 09:13:41;;;;;;;10.60;4.72;;;;;;;;;;5092057;28;20269;-68
2022/01/06 09:16:08;;;;;;;6.30;4.57;;;;;;;;;;5095398;28;20219;-68
2022/01/06 09:18:35;;;;;;;9.20;4.73;;;;;;;;;;5097624;28;20236;-67
2022/01/06 09:21:01;;;;;;;7.20;5.45;;;;;;;;;;5097153;28;20975;-67
2022/01/06 09:23:27;;;;;;;12.97;5.43;;;;;;;;;;5097412;28;20244;-68
2022/01/06 09:25:53;;;;;;;8.68;4.43;;;;;;;;;;5097380;28;20372;-67
2022/01/06 09:28:19;;;;;;;9.97;6.37;;;;;;;;;;5097323;28;20175;-66
2022/01/06 09:30:45;;;;;;;8.70;6.20;;;;;;;;;;5097279;28;20408;-68
2022/01/06 09:33:11;;;;;;;11.27;6.30;;;;;;;;;;5097094;28;20413;-66
2022/01/06 09:35:37;;;;;;;10.90;5.38;;;;;;;;;;5097373;28;20368;-68
2022/01/06 09:38:03;;;;;;;9.23;5.70;;;;;;;;;;5097040;28;20640;-67
2022/01/06 09:40:30;;;;;;;11.23;7.15;;;;;;;;;;5096998;28;20460;-67
2022/01/06 09:42:56;;;;;;;11.07;7.43;;;;;;;;;;5095647;28;20587;-71
2022/01/06 09:45:25;;;;;;;11.75;6.65;;;;;;;;;;5095818;28;20290;-77
2022/01/06 09:47:51;;;;;;;12.35;7.32;;;;;;;;;;5096975;28;20219;-73
2022/01/06 09:50:17;;;;;;;13.40;6.65;;;;;;;;;;5096825;28;20261;-66
2022/01/06 09:52:43;;;;;;;14.63;10.70;;;;;;;;;;5096863;28;20205;-67
2022/01/06 09:55:10;;;;;;;11.18;8.38;;;;;;;;;;5096713;28;20892;-67
2022/01/06 09:57:36;;;;;;;16.48;8.70;;;;;;;;;;5096672;28;20171;-67
2022/01/06 10:00:04;;;;;;;13.90;7.27;;;;;;;;;;5096665;28;20286;-67
2022/01/06 10:02:34;;;;;;;13.98;6.80;;;;;;;;;;5096672;28;20393;-67
2022/01/06 10:05:01;;;;;;;15.98;6.90;;;;;;;;;;5096800;28;20205;-67
2022/01/06 10:07:27;;;;;;;12.00;7.13;;;;;;;;;;5096601;28;20179;-67
2022/01/06 10:09:53;;;;;;;9.82;7.03;;;;;;;;;;5096412;28;20244;-67
2022/01/06 10:12:19;;;;;;;16.40;8.17;;;;;;;;;;5096550;28;20167;-66
2022/01/06 10:14:46;;;;;;;12.87;7.50;;;;;;;;;;5096408;28;20405;-68
2022/01/06 10:17:16;;;;;;;17.08;8.15;;;;;;;;;;5096145;28;20456;-67
2022/01/06 10:19:43;;;;;;;12.65;7.03;;;;;;;;;;5096002;28;20206;-67
2022/01/06 10:22:20;;;;;;;13.20;5.80;;;;;;;;;;5095020;28;20705;-67
2022/01/06 10:24:47;;;;;;;13.25;8.10;;;;;;;;;;5096223;28;20586;-68
2022/01/06 10:27:15;;;;;;;16.70;9.00;;;;;;;;;;5095923;28;20164;-67
2022/01/06 10:29:41;;;;;;;12.60;8.20;;;;;;;;;;5096397;28;20171;-67
2022/01/06 10:32:11;;;;;;;12.93;7.90;;;;;;;;;;5096071;28;20176;-68
2022/01/06 10:34:39;;;;;;;14.18;7.80;;;;;;;;;;5095957;28;20413;-68
2022/01/06 10:37:16;;;;;;;16.73;9.40;;;;;;;;;;5095863;28;20534;-67
2022/01/06 10:39:43;;;;;;;13.95;8.32;;;;;;;;;;5095845;28;20194;-68
2022/01/06 10:42:11;;;;;;;12.52;7.00;;;;;;;;;;5096184;28;20202;-67
2022/01/06 10:44:51;;;;;;;15.02;6.65;;;;;;;;;;5095794;28;20171;-67
2022/01/06 10:47:29;;;;;;;19.90;7.40;;;;;;;;;;5095795;28;20626;-65
2022/01/06 10:50:07;;;;;;;8.00;6.95;;;;;;;;;;5095580;28;20425;-67
2022/01/06 10:52:33;;;;;;;32.60;15.25;;;;;;;;;;5095710;28;20249;-72
2022/01/06 10:55:08;;;;;;;30.50;13.33;;;;;;;;;;5095614;28;20186;-63
2022/01/06 10:57:34;;;;;;;12.70;8.17;;;;;;;;;;5095839;28;20467;-63
2022/01/06 11:00:00;;;;;;;11.87;6.10;;;;;;;;;;5095431;28;20583;-64
2022/01/06 11:02:26;;;;;;;21.57;9.10;;;;;;;;;;5095476;28;20391;-63
2022/01/06 11:04:52;;;;;;;15.03;8.10;;;;;;;;;;5095739;28;20446;-63
2022/01/06 11:07:18;;;;;;;11.43;7.13;;;;;;;;;;5095435;28;20716;-64
2022/01/06 11:09:48;;;;;;;20.20;13.83;;;;;;;;;;5095329;28;20423;-63
2022/01/06 11:12:26;;;;;;;17.03;8.07;;;;;;;;;;5094051;28;20402;-63
2022/01/06 11:14:53;;;;;;;11.50;6.77;;;;;;;;;;5095271;28;20371;-63
2022/01/06 11:17:21;;;;;;;22.87;7.70;;;;;;;;;;5095030;28;20496;-63
2022/01/06 11:19:49;;;;;;;17.80;8.83;;;;;;;;;;5095015;28;20465;-64
2022/01/06 11:22:16;;;;;;;18.73;8.03;;;;;;;;;;5095378;28;20364;-64
2022/01/06 11:24:52;;;;;;;15.97;6.63;;;;;;;;;;5095047;28;20878;-64
2022/01/06 11:27:18;;;;;;;11.90;6.50;;;;;;;;;;5094993;28;20379;-64
2022/01/06 11:29:44;;;;;;;15.30;6.93;;;;;;;;;;5094913;28;20736;-65
2022/01/06 11:32:20;;;;;;;11.47;7.20;;;;;;;;;;5095168;28;20405;-63
2022/01/06 11:34:46;;;;;;;11.40;7.70;;;;;;;;;;5093592;28;20826;-63
2022/01/06 11:37:14;;;;;;;13.93;7.70;;;;;;;;;;5094855;28;20844;-63
2022/01/06 11:39:41;;;;;;;10.30;6.33;;;;;;;;;;5094378;28;20551;-63
2022/01/06 11:42:16;;;;;;;9.53;6.50;;;;;;;;;;5094812;28;20409;-64
2022/01/06 11:44:50;;;;;;;10.53;6.30;;;;;;;;;;5094670;28;20462;-63
2022/01/06 11:47:16;;;;;;;17.37;7.10;;;;;;;;;;5094648;28;20807;-63
2022/01/06 11:49:43;;;;;;;14.27;7.40;;;;;;;;;;5094494;28;20469;-64
2022/01/06 11:52:13;;;;;;;13.20;8.73;;;;;;;;;;5094748;28;20398;-64
2022/01/06 11:54:50;;;;;;;12.50;8.60;;;;;;;;;;5094472;28;20413;-63
2022/01/06 11:57:26;;;;;;;11.03;6.70;;;;;;;;;;5094440;28;20855;-63
2022/01/06 11:59:52;;;;;;;14.80;9.80;;;;;;;;;;5094267;28;20449;-63
2022/01/06 12:02:22;;;;;;;11.00;7.07;;;;;;;;;;5094263;28;20420;-63
2022/01/06 12:04:58;;;;;;;14.73;8.80;;;;;;;;;;5094206;28;20778;-64
2022/01/06 12:07:25;;;;;;;8.50;6.37;;;;;;;;;;5094245;28;20487;-63
2022/01/06 12:09:58;;;;;;;11.37;7.70;;;;;;;;;;5094466;28;20372;-63
2022/01/06 12:12:32;;;;;;;10.13;7.83;;;;;;;;;;5094070;28;20409;-63
2022/01/06 12:15:07;;;;;;;16.93;9.30;;;;;;;;;;5094027;28;20447;-63
2022/01/06 12:17:33;;;;;;;15.70;9.43;;;;;;;;;;5093957;28;20418;-64
2022/01/06 12:20:00;;;;;;;18.93;8.50;;;;;;;;;;5094197;28;20469;-64
2022/01/06 12:22:27;;;;;;;15.77;9.40;;;;;;;;;;5093974;28;20402;-63
2022/01/06 12:25:00;;;;;;;11.87;7.70;;;;;;;;;;5094184;28;20484;-63
2022/01/06 12:27:26;;;;;;;11.10;6.03;;;;;;;;;;5093955;28;20412;-63
2022/01/06 12:29:54;;;;;;;13.67;6.90;;;;;;;;;;5093851;28;20384;-63
2022/01/06 12:32:20;;;;;;;10.53;6.27;;;;;;;;;;5094105;28;20402;-63
2022/01/06 12:34:53;;;;;;;9.37;7.77;;;;;;;;;;5093737;28;20515;-66
2022/01/06 12:37:29;;;;;;;29.33;21.87;;;;;;;;;;5093741;28;20927;-63
2022/01/06 12:39:56;;;;;;;10.40;7.10;;;;;;;;;;5093660;28;20452;-64
2022/01/06 12:42:22;;;;;;;9.50;6.07;;;;;;;;;;5093770;28;20448;-65
2022/01/06 12:44:49;;;;;;;11.23;8.10;;;;;;;;;;5093932;28;20805;-64
2022/01/06 12:47:15;;;;;;;9.17;6.90;;;;;;;;;;5093645;28;20405;-64
2022/01/06 12:49:41;;;;;;;19.33;11.27;;;;;;;;;;5092796;28;20409;-63
2022/01/06 12:52:07;;;;;;;10.17;6.90;;;;;;;;;;5093386;28;20408;-66
2022/01/06 12:54:34;;;;;;;11.40;7.23;;;;;;;;;;5093389;28;20416;-64
2022/01/06 12:57:02;;;;;;;16.47;10.87;;;;;;;;;;5093563;28;20398;-64
2022/01/06 12:59:36;;;;;;;11.53;6.27;;;;;;;;;;5093779;28;20543;-64
2022/01/06 13:02:07;;;;;;;11.20;7.17;;;;;;;;;;5093741;28;20421;-64
2022/01/06 13:04:34;;;;;;;12.07;8.90;;;;;;;;;;5093510;28;20500;-63
2022/01/06 13:07:01;;;;;;;15.90;9.00;;;;;;;;;;5092319;28;20511;-63
2022/01/06 13:09:31;;;;;;;9.50;7.30;;;;;;;;;;5093525;28;20904;-64
2022/01/06 13:11:58;;;;;;;14.23;10.10;;;;;;;;;;5093662;28;20492;-64
2022/01/06 13:14:25;;;;;;;12.27;8.57;;;;;;;;;;5093432;28;20412;-64
2022/01/06 13:16:52;;;;;;;14.23;9.40;;;;;;;;;;5093352;28;20469;-64
2022/01/06 13:19:18;;;;;;;9.40;8.60;;;;;;;;;;5093290;28;20425;-63
2022/01/06 13:21:46;;;;;;;12.60;8.00;;;;;;;;;;5093069;28;20451;-64
2022/01/06 13:24:14;;;;;;;17.30;11.70;;;;;;;;;;5093228;28;20416;-64
2022/01/06 13:26:47;;;;;;;10.30;7.80;;;;;;;;;;5093212;28;20899;-65
2022/01/06 13:29:23;;;;;;;8.53;7.67;;;;;;;;;;5093423;28;20411;-63
2022/01/06 13:31:57;;;;;;;88.60;59.70;;;;;;;;;;5093162;28;20434;-63
2022/01/06 13:34:23;;;;;;;6.77;6.03;;;;;;;;;;5093167;28;20388;-69
2022/01/06 13:36:49;;;;;;;11.87;7.50;;;;;;;;;;5093195;28;20911;-68
2022/01/06 13:39:15;;;;;;;9.47;7.03;;;;;;;;;;5093060;28;20529;-67
2022/01/06 13:41:46;;;;;;;15.33;6.67;;;;;;;;;;5093161;28;21030;-66
2022/01/06 13:44:13;;;;;;;12.23;7.17;;;;;;;;;;5093028;28;20877;-66
2022/01/06 13:46:52;;;;;;;16.30;11.93;;;;;;;;;;5093245;28;20825;-65
2022/01/06 13:52:16;;;;;;;14.63;8.40;;;;;;;;;;5093349;28;20450;-63
2022/01/06 13:54:42;;;;;;;12.33;6.10;;;;;;;;;;5093067;28;20447;-64
2022/01/06 13:57:09;;;;;;;11.53;7.40;;;;;;;;;;5091718;28;20843;-63
2022/01/06 13:59:35;;;;;;;11.50;5.83;;;;;;;;;;5092953;28;20457;-65
2022/01/06 14:02:01;;;;;;;13.27;5.90;;;;;;;;;;5095220;28;20793;-63
2022/01/06 14:04:27;;;;;;;11.50;6.00;;;;;;;;;;5096736;28;20494;-64
2022/01/06 14:06:53;;;;;;;11.53;7.20;;;;;;;;;;5096704;28;20482;-65
2022/01/06 14:09:20;;;;;;;7.00;6.03;;;;;;;;;;5096991;28;20472;-64
2022/01/06 14:11:46;;;;;;;11.30;6.67;;;;;;;;;;5096535;28;20407;-63
2022/01/06 14:14:13;;;;;;;10.20;6.13;;;;;;;;;;5096542;28;20379;-63
2022/01/06 14:16:39;;;;;;;14.33;8.17;;;;;;;;;;5096399;28;20863;-63
2022/01/06 14:19:05;;;;;;;7.97;7.23;;;;;;;;;;5096262;28;20909;-63
2022/01/06 14:21:31;;;;;;;6.50;5.90;;;;;;;;;;5096336;28;20496;-64
2022/01/06 14:23:57;;;;;;;7.63;5.23;;;;;;;;;;5096671;28;20380;-63
2022/01/06 14:26:23;;;;;;;9.80;6.83;;;;;;;;;;5096346;28;20838;-63
2022/01/06 14:28:49;;;;;;;8.90;7.30;;;;;;;;;;5096241;28;20402;-64
2022/01/06 14:31:15;;;;;;;15.00;7.57;;;;;;;;;;5096183;28;20386;-63
2022/01/06 14:33:41;;;;;;;7.20;5.00;;;;;;;;;;5096131;28;20402;-64
2022/01/06 14:36:08;;;;;;;14.90;5.40;;;;;;;;;;5096179;28;20368;-64
2022/01/06 14:38:34;;;;;;;12.80;5.07;;;;;;;;;;5094723;28;20821;-63
2022/01/06 14:41:01;;;;;;;11.20;5.70;;;;;;;;;;5095935;28;20444;-63
2022/01/06 14:43:27;;;;;;;7.07;5.80;;;;;;;;;;5096010;28;20379;-64
2022/01/06 14:45:54;;;;;;;9.60;4.90;;;;;;;;;;5095871;28;20413;-65
2022/01/06 14:48:20;;;;;;;10.20;6.30;;;;;;;;;;5095940;28;20488;-63